Time;durP1;ratioP1;P1;durP2;ratioP2;P2;SDS_P1;SDS_P2;PMS_P1;PMS_P2;Temp;Humidity;BMP_temperature;BMP_pressure;BME280_temperature;BME280_humidity;BME280_pressure;Samples;Min_cycle;Max_cycle;Signal;HPM_P1;HPM_P2
2023/04/19 00:00:40;;;;;;;;;7.50;7.50;;;;;11.65;76.44;99372.09;5008080;28;45349;-76
2023/04/19 00:03:07;;;;;;;;;7.25;7.00;;;;;11.62;76.95;99368.72;5008651;28;45405;-75
2023/04/19 00:05:32;;;;;;;;;6.50;6.25;;;;;11.59;76.99;99374.97;5009595;28;45558;-75
2023/04/19 00:07:58;;;;;;;;;6.00;6.00;;;;;11.54;77.21;99374.31;5005863;28;45477;-75
2023/04/19 00:10:24;;;;;;;;;8.75;8.00;;;;;11.47;77.05;99376.34;5009145;28;46043;-76
2023/04/19 00:12:50;;;;;;;;;7.00;6.75;;;;;11.44;76.42;99370.31;5027405;28;45477;-75
2023/04/19 00:15:16;;;;;;;;;5.50;5.50;;;;;11.41;76.05;99366.00;5009421;28;45384;-76
2023/04/19 00:17:41;;;;;;;;;6.25;6.00;;;;;11.41;75.65;99373.94;5024306;28;45460;-75
2023/04/19 00:20:08;;;;;;;;;6.75;6.75;;;;;11.41;75.81;99378.34;5008615;28;45464;-76
2023/04/19 00:22:34;;;;;;;;;6.00;4.00;;;;;11.40;75.58;99377.47;5009879;28;45487;-76
2023/04/19 00:25:00;;;;;;;;;7.00;7.00;;;;;11.40;75.62;99366.06;5028250;28;45890;-75
2023/04/19 00:27:25;;;;;;;;;6.00;5.25;;;;;11.41;75.38;99381.84;5011692;28;45436;-75
2023/04/19 00:29:51;;;;;;;;;6.50;6.50;;;;;11.40;75.70;99380.13;5006903;28;45506;-75
2023/04/19 00:32:16;;;;;;;;;4.00;4.00;;;;;11.37;75.85;99372.34;5007970;28;45554;-76
2023/04/19 00:34:42;;;;;;;;;5.00;5.00;;;;;11.37;75.39;99372.34;5023882;28;45536;-76
2023/04/19 00:37:08;;;;;;;;;4.75;4.75;;;;;11.36;75.41;99368.00;5025298;28;45571;-75
2023/04/19 00:39:34;;;;;;;;;4.50;4.50;;;;;11.33;75.60;99376.03;5011316;28;45506;-76
2023/04/19 00:42:00;;;;;;;;;5.00;4.75;;;;;11.31;75.83;99374.38;5011709;28;45454;-75
2023/04/19 00:44:25;;;;;;;;;6.75;5.00;;;;;11.30;75.80;99373.50;5015257;28;45499;-75
2023/04/19 00:46:51;;;;;;;;;5.00;5.00;;;;;11.28;75.72;99372.69;5015284;28;45539;-75
2023/04/19 00:49:17;;;;;;;;;5.00;5.00;;;;;11.27;75.60;99373.63;5015620;28;46576;-76
2023/04/19 00:51:42;;;;;;;;;5.75;4.00;;;;;11.26;75.44;99371.03;5011106;28;45424;-76
2023/04/19 00:54:08;;;;;;;;;6.50;5.00;;;;;11.22;75.45;99372.94;5026402;28;45349;-76
2023/04/19 00:56:34;;;;;;;;;4.50;4.50;;;;;11.22;75.73;99374.72;5021491;28;45366;-75
2023/04/19 00:59:01;;;;;;;;;6.00;6.00;;;;;11.19;75.55;99368.66;5013558;28;46230;-75
2023/04/19 01:01:26;;;;;;;;;7.50;6.25;;;;;11.18;75.65;99366.06;5013331;28;45404;-76
2023/04/19 01:03:52;;;;;;;;;7.25;6.50;;;;;11.17;76.01;99366.97;5029178;28;45567;-76
2023/04/19 01:06:18;;;;;;;;;7.00;5.25;;;;;11.15;76.19;99360.91;5015014;28;45457;-75
2023/04/19 01:08:43;;;;;;;;;6.00;6.00;;;;;11.15;76.60;99363.53;5009730;28;46105;-76
2023/04/19 01:11:09;;;;;;;;;6.75;6.00;;;;;11.17;76.47;99359.06;5014574;28;45391;-75
2023/04/19 01:13:35;;;;;;;;;9.00;7.25;;;;;11.16;76.91;99365.25;5014628;28;45567;-76
2023/04/19 01:16:00;;;;;;;;;5.25;5.25;;;;;11.15;76.27;99363.53;5014869;28;45452;-75
2023/04/19 01:18:31;;;;;;;;;7.00;6.00;;;;;11.13;76.50;99362.72;5006143;28;45640;-75
2023/04/19 01:20:57;;;;;;;;;8.00;6.50;;;;;11.10;76.70;99355.78;5013580;28;45567;-75
2023/04/19 01:23:22;;;;;;;;;5.50;5.50;;;;;11.08;76.04;99364.69;5005270;28;45448;-75
2023/04/19 01:25:49;;;;;;;;;5.25;5.25;;;;;11.07;75.91;99368.22;5015579;28;45416;-75
2023/04/19 01:28:14;;;;;;;;;7.50;5.50;;;;;11.05;76.11;99363.03;5018101;28;45725;-75
2023/04/19 01:30:40;;;;;;;;;5.00;5.00;;;;;11.02;76.94;99365.78;5014928;28;45508;-75
2023/04/19 01:33:05;;;;;;;;;5.75;5.75;;;;;11.00;76.53;99361.50;5014679;28;45496;-75
2023/04/19 01:35:31;;;;;;;;;6.75;6.75;;;;;10.98;76.85;99364.19;5015516;28;45478;-75
2023/04/19 01:37:56;;;;;;;;;8.00;6.00;;;;;10.96;76.45;99362.50;5025288;28;47742;-75
2023/04/19 01:40:23;;;;;;;;;9.00;8.00;;;;;10.93;77.03;99357.34;5016233;28;45442;-75
2023/04/19 01:42:49;;;;;;;;;8.50;7.00;;;;;10.92;76.71;99358.25;5013281;28;45475;-75
2023/04/19 01:45:14;;;;;;;;;5.00;5.00;;;;;10.90;77.06;99358.31;5014689;28;45348;-75
2023/04/19 01:47:39;;;;;;;;;8.75;8.75;;;;;10.88;77.37;99349.63;5017371;28;47080;-75
2023/04/19 01:50:06;;;;;;;;;6.00;5.75;;;;;10.87;76.60;99352.31;5029607;28;46242;-75
2023/04/19 01:52:31;;;;;;;;;6.00;6.00;;;;;10.83;76.50;99351.56;5015039;28;45569;-75
2023/04/19 01:54:56;;;;;;;;;4.75;4.00;;;;;10.82;76.25;99353.34;5015147;28;45511;-75
2023/04/19 01:57:22;;;;;;;;;7.00;7.00;;;;;10.80;76.12;99349.91;5025258;28;47022;-75
2023/04/19 01:59:47;;;;;;;;;7.25;6.00;;;;;10.80;76.53;99355.19;5011135;28;45570;-75
2023/04/19 02:02:13;;;;;;;;;4.50;4.50;;;;;10.79;76.49;99357.88;5029590;28;45533;-75
2023/04/19 02:04:38;;;;;;;;;6.25;6.00;;;;;10.78;76.96;99351.72;5030207;28;45512;-75
2023/04/19 02:07:03;;;;;;;;;6.50;6.00;;;;;10.77;77.17;99352.66;5029247;28;47074;-75
2023/04/19 02:09:29;;;;;;;;;8.75;7.00;;;;;10.76;77.36;99355.34;5014836;28;45414;-75
2023/04/19 02:11:54;;;;;;;;;12.00;7.25;;;;;10.73;77.73;99358.09;5013508;28;45572;-75
2023/04/19 02:14:20;;;;;;;;;9.00;8.75;;;;;10.71;78.76;99359.94;5004058;28;45518;-75
2023/04/19 02:16:45;;;;;;;;;8.75;8.00;;;;;10.69;79.15;99367.91;5014158;28;45405;-75
2023/04/19 02:19:11;;;;;;;;;8.75;8.00;;;;;10.66;79.08;99367.16;5014522;28;45481;-75
2023/04/19 02:21:36;;;;;;;;;14.00;14.00;;;;;10.63;80.00;99365.50;5012675;28;45442;-75
2023/04/19 02:24:02;;;;;;;;;8.25;8.25;;;;;10.61;79.77;99369.94;5012904;28;45437;-75
2023/04/19 02:26:27;;;;;;;;;8.25;8.25;;;;;10.58;80.19;99369.19;5013478;28;45581;-75
2023/04/19 02:28:52;;;;;;;;;7.75;7.75;;;;;10.57;80.14;99370.13;5020483;28;45465;-76
2023/04/19 02:31:18;;;;;;;;;5.00;5.00;;;;;10.53;79.53;99363.25;5021489;28;45603;-75
2023/04/19 02:33:45;;;;;;;;;8.50;8.50;;;;;10.48;79.68;99369.53;5014302;28;45426;-75
2023/04/19 02:36:11;;;;;;;;;8.00;8.00;;;;;10.46;79.61;99365.22;5013994;28;46015;-75
2023/04/19 02:38:36;;;;;;;;;6.00;6.00;;;;;10.42;80.05;99366.25;5006799;28;45422;-75
2023/04/19 02:41:03;;;;;;;;;8.00;7.00;;;;;10.40;80.26;99362.81;5014151;28;45294;-76
2023/04/19 02:43:29;;;;;;;;;7.00;7.00;;;;;10.37;79.93;99361.16;5007882;28;45552;-75
2023/04/19 02:45:55;;;;;;;;;2.00;2.00;;;;;10.38;80.28;99365.53;5013911;28;45553;-75
2023/04/19 02:48:20;;;;;;;;;9.25;9.00;;;;;10.36;80.47;99366.50;5014367;28;45443;-75
2023/04/19 02:50:45;;;;;;;;;11.75;9.25;;;;;10.36;80.61;99363.84;5029165;28;45385;-75
2023/04/19 02:53:11;;;;;;;;;4.00;4.00;;;;;10.35;81.13;99367.41;5012708;28;45616;-75
2023/04/19 02:55:36;;;;;;;;;8.00;8.00;;;;;10.35;81.06;99370.91;5014140;28;45424;-75
2023/04/19 02:58:02;;;;;;;;;9.00;7.25;;;;;10.36;81.16;99369.13;5029135;28;45461;-75
2023/04/19 03:00:27;;;;;;;;;8.50;8.25;;;;;10.35;81.24;99370.03;5028626;28;45397;-75
2023/04/19 03:02:54;;;;;;;;;12.00;10.00;;;;;10.33;81.17;99367.44;5013311;28;45498;-75
2023/04/19 03:05:20;;;;;;;;;9.50;9.50;;;;;10.34;80.68;99365.69;5027683;28;47002;-75
2023/04/19 03:07:45;;;;;;;;;7.50;7.50;;;;;10.32;81.15;99370.13;5011942;28;45773;-75
2023/04/19 03:10:11;;;;;;;;;8.50;7.75;;;;;10.31;81.26;99363.16;5029024;28;45393;-75
2023/04/19 03:12:36;;;;;;;;;11.00;9.50;;;;;10.30;81.26;99369.31;5013415;28;45309;-75
2023/04/19 03:15:02;;;;;;;;;11.00;10.25;;;;;10.29;81.43;99364.97;5012535;28;46131;-76
2023/04/19 03:17:27;;;;;;;;;9.50;9.50;;;;;10.27;81.32;99369.44;5006609;28;45488;-76
2023/04/19 03:19:53;;;;;;;;;11.00;8.00;;;;;10.27;81.44;99367.66;5013962;28;45400;-76
2023/04/19 03:22:18;;;;;;;;;11.25;11.25;;;;;10.26;81.55;99367.72;5028773;28;45538;-76
2023/04/19 03:24:43;;;;;;;;;9.50;9.50;;;;;10.26;81.64;99370.34;5012066;28;46515;-76
2023/04/19 03:27:09;;;;;;;;;10.00;10.00;;;;;10.24;81.52;99365.13;5012157;28;45443;-76
2023/04/19 03:29:34;;;;;;;;;10.25;10.25;;;;;10.24;81.34;99367.75;5028678;28;45438;-76
2023/04/19 03:32:00;;;;;;;;;13.25;8.75;;;;;10.23;81.56;99368.66;5011040;28;45422;-76
2023/04/19 03:34:26;;;;;;;;;9.75;9.75;;;;;10.22;81.08;99377.47;5028324;28;47839;-76
2023/04/19 03:36:51;;;;;;;;;8.50;7.00;;;;;10.22;80.90;99368.75;5012002;28;45655;-76
2023/04/19 03:39:16;;;;;;;;;10.50;9.50;;;;;10.22;80.79;99363.47;5012002;28;45448;-76
2023/04/19 03:41:42;;;;;;;;;3.00;2.00;;;;;10.20;80.19;99370.56;5009942;28;45482;-76
2023/04/19 03:44:07;;;;;;;;;5.75;5.25;;;;;10.18;80.61;99370.59;5001439;28;45537;-76
2023/04/19 03:46:33;;;;;;;;;6.75;6.75;;;;;10.18;79.57;99375.00;5012205;28;45423;-76
2023/04/19 03:48:58;;;;;;;;;7.50;5.75;;;;;10.15;78.89;99374.19;5004413;28;45704;-77
2023/04/19 03:51:23;;;;;;;;;7.25;5.00;;;;;10.11;78.83;99371.69;5025559;28;45389;-77
2023/04/19 03:53:49;;;;;;;;;9.50;7.00;;;;;10.10;78.52;99364.72;5005029;28;45409;-77
2023/04/19 03:56:14;;;;;;;;;6.00;6.00;;;;;10.08;78.19;99371.81;5011837;28;45387;-76
2023/04/19 03:58:40;;;;;;;;;9.75;8.25;;;;;10.05;78.08;99372.75;5004608;28;45503;-77
2023/04/19 04:01:07;;;;;;;;;7.50;7.00;;;;;10.03;78.05;99374.63;5011921;28;45597;-77
2023/04/19 04:03:32;;;;;;;;;10.00;8.00;;;;;10.00;78.03;99366.81;5012585;28;46240;-76
2023/04/19 04:05:58;;;;;;;;;10.00;7.00;;;;;9.99;78.09;99374.75;5010943;28;45346;-77
2023/04/19 04:08:23;;;;;;;;;7.00;7.00;;;;;9.96;77.96;99369.59;5012737;28;45448;-77
2023/04/19 04:10:48;;;;;;;;;9.00;7.75;;;;;9.92;78.01;99363.56;5012326;28;45410;-76
2023/04/19 04:13:14;;;;;;;;;9.50;6.50;;;;;9.92;77.94;99373.22;5012376;28;46734;-76
2023/04/19 04:15:39;;;;;;;;;8.25;6.75;;;;;9.90;78.00;99372.41;5013736;28;45409;-77
2023/04/19 04:18:04;;;;;;;;;11.00;10.25;;;;;9.90;78.01;99377.69;5028117;28;45851;-76
2023/04/19 04:20:30;;;;;;;;;9.75;9.75;;;;;9.89;78.18;99373.31;5016014;28;45400;-76
2023/04/19 04:22:55;;;;;;;;;6.25;4.25;;;;;9.87;77.68;99380.44;5015838;28;46516;-76
2023/04/19 04:25:21;;;;;;;;;12.00;11.00;;;;;9.83;77.77;99377.03;5012123;28;45514;-76
2023/04/19 04:27:50;;;;;;;;;12.25;10.00;;;;;9.80;77.66;99378.00;5024008;28;45405;-76
2023/04/19 04:30:15;;;;;;;;;12.00;12.00;;;;;9.79;77.64;99385.94;5015270;28;45485;-76
2023/04/19 04:32:42;;;;;;;;;15.50;13.25;;;;;9.77;77.78;99385.13;5008227;28;46287;-76
2023/04/19 04:35:08;;;;;;;;;17.50;14.75;;;;;9.76;77.59;99393.94;5015137;28;45580;-76
2023/04/19 04:37:34;;;;;;;;;13.00;11.75;;;;;9.76;78.05;99389.53;5029587;28;45440;-76
2023/04/19 04:40:00;;;;;;;;;15.00;13.33;;;;;9.75;77.81;99393.06;5014695;28;45957;-76
2023/04/19 04:42:26;;;;;;;;;11.00;11.00;;;;;9.75;77.89;99393.06;5015480;28;46319;-76
2023/04/19 04:44:52;;;;;;;;;12.50;11.00;;;;;9.75;77.73;99394.84;5015474;28;45631;-76
2023/04/19 04:47:17;;;;;;;;;12.00;11.67;;;;;9.74;77.87;99391.34;5016057;28;45317;-77
2023/04/19 04:49:43;;;;;;;;;11.50;10.25;;;;;9.74;77.89;99393.13;5013967;28;45592;-76
2023/04/19 04:52:08;;;;;;;;;14.50;13.00;;;;;9.73;77.82;99394.91;5029747;28;46808;-76
2023/04/19 04:54:34;;;;;;;;;14.00;12.67;;;;;9.76;77.47;99397.44;5015706;28;45337;-76
2023/04/19 04:57:00;;;;;;;;;10.25;10.00;;;;;9.77;77.39;99396.53;5005763;28;45916;-76
2023/04/19 04:59:25;;;;;;;;;11.25;9.75;;;;;9.78;77.81;99394.75;5030436;28;45359;-76
2023/04/19 05:01:51;;;;;;;;;5.00;5.00;;;;;9.79;77.71;99405.25;5010984;28;46199;-77
2023/04/19 05:04:17;;;;;;;;;15.50;13.75;;;;;9.82;77.71;99398.16;5030633;28;45494;-76
2023/04/19 05:06:43;;;;;;;;;11.75;11.25;;;;;9.83;77.98;99405.16;5014764;28;45450;-77
2023/04/19 05:09:09;;;;;;;;;14.00;11.00;;;;;9.84;78.42;99401.59;5030172;28;45563;-76
2023/04/19 05:11:35;;;;;;;;;14.50;12.25;;;;;9.88;78.35;99405.88;5014906;28;45444;-76
2023/04/19 05:14:01;;;;;;;;;12.50;12.25;;;;;9.87;78.47;99409.41;5013745;28;45436;-77
2023/04/19 05:16:26;;;;;;;;;13.00;13.00;;;;;9.88;79.15;99412.00;5015159;28;45544;-76
2023/04/19 05:18:52;;;;;;;;;15.50;14.00;;;;;9.90;78.66;99409.28;5013443;28;45519;-77
2023/04/19 05:21:17;;;;;;;;;13.33;12.33;;;;;9.92;79.11;99402.19;5030281;28;45522;-76
2023/04/19 05:23:43;;;;;;;;;14.00;13.50;;;;;9.93;79.73;99415.31;5015386;28;45502;-78
2023/04/19 05:26:11;;;;;;;;;12.75;12.25;;;;;9.94;80.06;99409.13;5015558;28;45352;-78
2023/04/19 05:28:37;;;;;;;;;13.25;13.25;;;;;9.94;80.19;99409.13;5015087;28;45389;-78
2023/04/19 05:31:03;;;;;;;;;11.00;10.67;;;;;9.93;80.61;99412.69;5010063;28;45517;-78
2023/04/19 05:33:28;;;;;;;;;13.33;11.00;;;;;9.97;80.48;99416.09;5010270;28;45486;-77
2023/04/19 05:35:54;;;;;;;;;10.75;10.00;;;;;10.00;80.50;99408.09;5029126;28;45401;-77
2023/04/19 05:38:19;;;;;;;;;11.00;10.25;;;;;9.99;80.40;99412.50;5012725;28;45532;-77
2023/04/19 05:40:50;;;;;;;;;11.00;6.00;;;;;9.99;80.69;99407.22;5014965;28;45482;-77
2023/04/19 05:43:15;;;;;;;;;13.25;12.50;;;;;10.03;80.58;99415.91;5012376;28;45366;-77
2023/04/19 05:45:41;;;;;;;;;11.25;10.25;;;;;10.03;80.65;99413.25;5028791;28;45416;-69
2023/04/19 05:48:06;;;;;;;;;14.00;13.67;;;;;10.15;80.75;99415.47;5011564;28;45640;-64
2023/04/19 05:50:32;;;;;;;;;12.25;12.25;;;;;10.23;80.32;99417.88;5013580;28;45554;-64
2023/04/19 05:52:57;;;;;;;;;15.25;15.25;;;;;10.27;80.02;99408.94;5013441;28;45391;-65
2023/04/19 05:55:23;;;;;;;;;13.00;12.00;;;;;10.29;79.82;99415.91;5008162;28;45433;-64
2023/04/19 05:57:48;;;;;;;;;13.00;12.25;;;;;10.30;79.57;99409.72;5014230;28;45576;-64
2023/04/19 06:00:15;;;;;;;;;10.25;9.00;;;;;10.32;79.55;99410.53;5007861;28;45492;-64
2023/04/19 06:02:40;;;;;;;;;6.75;6.75;;;;;10.35;79.42;99409.56;5014253;28;45410;-72
2023/04/19 06:05:06;;;;;;;;;12.00;11.25;;;;;10.37;79.19;99403.34;5009916;28;45417;-64
2023/04/19 06:07:31;;;;;;;;;12.75;10.25;;;;;10.38;78.67;99412.09;5008318;28;45570;-64
2023/04/19 06:09:57;;;;;;;;;11.75;11.00;;;;;10.36;78.96;99398.13;5011807;28;46519;-64
2023/04/19 06:12:22;;;;;;;;;11.25;9.00;;;;;10.39;78.77;99412.03;5009773;28;45594;-63
2023/04/19 06:14:48;;;;;;;;;13.75;10.00;;;;;10.43;78.90;99404.88;5010185;28;45349;-64
2023/04/19 06:17:15;;;;;;;;;13.50;13.50;;;;;10.45;79.02;99403.91;5010540;28;45452;-64
2023/04/19 06:19:41;;;;;;;;;15.50;14.75;;;;;10.51;78.85;99409.88;5009246;28;46440;-64
2023/04/19 06:22:07;;;;;;;;;16.25;14.00;;;;;10.54;78.96;99415.91;5020630;28;45751;-62
2023/04/19 06:24:32;;;;;;;;;14.75;14.00;;;;;10.55;78.66;99408.88;5007874;28;45489;-63
2023/04/19 06:26:57;;;;;;;;;16.50;14.00;;;;;10.58;78.90;99414.00;5012737;28;45388;-63
2023/04/19 06:29:23;;;;;;;;;15.50;14.75;;;;;10.60;79.13;99409.56;5011702;28;46367;-63
2023/04/19 06:31:48;;;;;;;;;13.00;13.00;;;;;10.64;78.83;99409.41;5013394;28;45434;-63
2023/04/19 06:34:14;;;;;;;;;14.00;13.50;;;;;10.67;78.58;99408.44;5005565;28;45526;-63
2023/04/19 06:36:40;;;;;;;;;9.50;8.00;;;;;10.70;78.64;99405.69;5013430;28;45458;-62
2023/04/19 06:39:06;;;;;;;;;14.50;13.75;;;;;10.73;78.45;99401.13;5007374;28;45483;-64
2023/04/19 06:41:31;;;;;;;;;9.50;9.25;;;;;10.77;78.31;99410.66;5013317;28;45443;-64
2023/04/19 06:43:57;;;;;;;;;14.00;14.00;;;;;10.80;78.48;99407.06;5007775;28;45936;-63
2023/04/19 06:46:22;;;;;;;;;15.00;14.75;;;;;10.86;78.21;99400.72;5013351;28;45409;-63
2023/04/19 06:48:48;;;;;;;;;12.25;11.75;;;;;10.91;78.30;99393.47;5008122;28;45605;-64
2023/04/19 06:51:13;;;;;;;;;14.75;13.25;;;;;10.99;78.14;99394.06;5012844;28;45563;-64
2023/04/19 06:53:38;;;;;;;;;14.33;14.33;;;;;11.06;78.05;99399.03;5009679;28;45373;-64
2023/04/19 06:56:04;;;;;;;;;19.67;18.33;;;;;11.14;77.79;99396.13;5012655;28;45576;-64
2023/04/19 06:58:31;;;;;;;;;16.67;16.00;;;;;11.22;77.77;99395.84;5008259;28;47390;-63
2023/04/19 07:00:57;;;;;;;;;17.67;16.67;;;;;11.28;78.00;99388.53;5013218;28;45417;-64
2023/04/19 07:03:22;;;;;;;;;21.00;19.00;;;;;11.35;77.50;99389.16;5013642;28;45543;-63
2023/04/19 07:05:48;;;;;;;;;14.25;12.25;;;;;11.39;77.18;99388.13;5012280;28;45483;-64
2023/04/19 07:08:13;;;;;;;;;10.25;10.25;;;;;11.45;77.14;99387.88;5013063;28;47506;-64
2023/04/19 07:10:39;;;;;;;;;10.25;10.25;;;;;11.52;77.17;99384.94;5013289;28;45467;-64
2023/04/19 07:13:04;;;;;;;;;15.00;15.00;;;;;11.58;76.57;99382.97;5012613;28;45527;-64
2023/04/19 07:15:30;;;;;;;;;9.50;8.00;;;;;11.63;76.71;99381.88;5014002;28;45349;-64
2023/04/19 07:17:55;;;;;;;;;11.75;9.25;;;;;11.69;76.36;99379.00;5013098;28;45498;-65
2023/04/19 07:20:20;;;;;;;;;16.00;15.00;;;;;11.76;76.47;99374.31;5013734;28;45401;-64
2023/04/19 07:22:46;;;;;;;;;16.50;16.00;;;;;11.82;75.87;99382.88;5014083;28;45635;-64
2023/04/19 07:25:13;;;;;;;;;17.75;16.00;;;;;11.88;75.95;99382.63;5013336;28;45438;-64
2023/04/19 07:27:38;;;;;;;;;17.00;14.25;;;;;11.95;76.02;99382.34;5011931;28;45483;-63
2023/04/19 07:30:04;;;;;;;;;17.75;17.00;;;;;12.01;75.56;99372.41;5012512;28;45474;-64
2023/04/19 07:32:30;;;;;;;;;17.50;15.50;;;;;12.09;75.33;99375.56;5008306;28;45465;-64
2023/04/19 07:34:55;;;;;;;;;16.25;14.75;;;;;12.16;74.94;99377.03;5001170;28;45337;-64
2023/04/19 07:37:21;;;;;;;;;15.25;13.00;;;;;12.23;74.66;99369.72;5008137;28;46412;-64
2023/04/19 07:39:46;;;;;;;;;18.00;15.25;;;;;12.30;74.48;99365.00;5001838;28;45419;-64
2023/04/19 07:42:11;;;;;;;;;12.25;12.25;;;;;12.36;74.21;99370.06;5010635;28;45353;-64
2023/04/19 07:44:37;;;;;;;;;12.25;8.75;;;;;12.43;74.07;99363.56;5010461;28;45294;-64
2023/04/19 07:47:04;;;;;;;;;17.75;14.75;;;;;12.50;74.04;99363.22;5007128;28;46049;-64
2023/04/19 07:49:32;;;;;;;;;11.75;11.75;;;;;12.59;73.48;99359.31;5004617;28;45501;-64
2023/04/19 07:52:01;;;;;;;;;17.50;11.75;;;;;12.65;73.27;99359.03;5023443;28;45561;-64
2023/04/19 07:54:27;;;;;;;;;17.25;13.50;;;;;12.72;72.78;99362.28;5005127;28;45336;-64
2023/04/19 07:56:52;;;;;;;;;12.75;12.00;;;;;12.79;72.87;99353.97;5010022;28;46054;-64
2023/04/19 07:59:18;;;;;;;;;14.25;10.75;;;;;12.88;72.15;99350.94;5010783;28;45400;-64
2023/04/19 08:01:43;;;;;;;;;13.75;11.50;;;;;12.95;72.11;99356.78;5012688;28;45677;-64
2023/04/19 08:04:09;;;;;;;;;10.25;10.25;;;;;13.02;71.60;99354.72;5012294;28;45620;-64
2023/04/19 08:06:36;;;;;;;;;11.00;9.75;;;;;13.11;71.51;99349.00;5012580;28;46313;-64
2023/04/19 08:09:02;;;;;;;;;12.00;12.00;;;;;13.17;70.80;99344.31;5012289;28;45554;-66
2023/04/19 08:11:28;;;;;;;;;16.50;14.50;;;;;13.23;70.85;99340.53;5011598;28;45609;-64
2023/04/19 08:13:53;;;;;;;;;17.00;15.75;;;;;13.30;70.40;99336.66;5012126;28;45526;-64
2023/04/19 08:16:18;;;;;;;;;19.25;15.00;;;;;13.37;70.43;99335.44;5011506;28;45376;-64
2023/04/19 08:18:45;;;;;;;;;12.25;12.25;;;;;13.45;70.48;99327.09;5008502;28;45398;-64
2023/04/19 08:21:10;;;;;;;;;21.25;17.75;;;;;13.51;69.98;99327.66;5011715;28;45379;-62
2023/04/19 08:23:36;;;;;;;;;13.25;13.25;;;;;13.58;69.74;99323.78;5010722;28;45564;-63
2023/04/19 08:26:01;;;;;;;;;15.00;14.00;;;;;13.66;69.26;99327.84;5011793;28;45396;-64
2023/04/19 08:28:27;;;;;;;;;12.75;12.75;;;;;13.73;68.26;99326.63;5010429;28;45688;-64
2023/04/19 08:30:53;;;;;;;;;14.25;14.25;;;;;13.79;67.40;99319.22;5027018;28;45392;-63
2023/04/19 08:33:19;;;;;;;;;13.00;13.00;;;;;13.86;67.20;99314.47;5009835;28;45643;-63
2023/04/19 08:35:44;;;;;;;;;11.00;11.00;;;;;13.90;67.13;99308.94;5012880;28;46136;-63
2023/04/19 08:38:10;;;;;;;;;12.75;12.50;;;;;13.95;66.89;99314.84;5010936;28;45518;-64
2023/04/19 08:40:40;;;;;;;;;16.50;16.50;;;;;14.02;66.74;99307.47;5012670;28;45329;-64
2023/04/19 08:43:06;;;;;;;;;15.50;13.50;;;;;14.08;66.08;99301.81;5009399;28;45501;-64
2023/04/19 08:45:32;;;;;;;;;25.25;24.00;;;;;14.14;66.22;99295.34;5012242;28;45323;-64
2023/04/19 08:47:58;;;;;;;;;14.50;14.00;;;;;14.19;66.07;99296.84;5011299;28;45525;-64
2023/04/19 08:50:24;;;;;;;;;14.25;13.75;;;;;14.25;65.78;99295.66;5005026;28;45326;-64
2023/04/19 08:52:50;;;;;;;;;12.25;12.25;;;;;14.31;65.94;99292.69;5026299;28;45425;-64
2023/04/19 08:55:15;;;;;;;;;15.75;13.50;;;;;14.38;65.90;99290.56;5011054;28;46219;-64
2023/04/19 08:57:41;;;;;;;;;19.25;16.25;;;;;14.43;65.84;99283.25;5009462;28;45433;-64
2023/04/19 09:00:08;;;;;;;;;16.00;16.00;;;;;14.51;65.46;99279.25;5014900;28;45395;-64
2023/04/19 09:02:48;;;;;;;;;17.00;17.00;;;;;14.60;64.97;99284.06;5014004;28;45453;-64
2023/04/19 09:05:14;;;;;;;;;17.25;17.25;;;;;14.68;64.47;99288.97;5015207;28;46452;-64
2023/04/19 09:07:39;;;;;;;;;15.50;14.50;;;;;14.73;64.49;99283.41;5014529;28;45463;-64
2023/04/19 09:10:09;;;;;;;;;17.25;16.00;;;;;14.79;64.39;99281.28;5015623;28;45415;-64
2023/04/19 09:12:35;;;;;;;;;18.75;18.50;;;;;14.86;64.61;99276.50;5015159;28;45728;-63
2023/04/19 09:15:03;;;;;;;;;23.00;22.50;;;;;14.91;63.84;99267.31;5015169;28;45465;-64
2023/04/19 09:17:30;;;;;;;;;18.75;16.50;;;;;14.99;63.08;99266.91;5014258;28;45494;-64
2023/04/19 09:19:56;;;;;;;;;16.75;14.00;;;;;15.06;63.29;99259.47;5015572;28;45404;-64
2023/04/19 09:22:22;;;;;;;;;17.00;16.00;;;;;15.12;63.25;99259.94;5029343;28;45524;-64
2023/04/19 09:24:47;;;;;;;;;18.25;17.00;;;;;15.20;63.67;99254.22;5014244;28;46151;-62
2023/04/19 09:27:25;;;;;;;;;17.75;17.00;;;;;15.27;62.72;99252.91;5014616;28;45433;-64
2023/04/19 09:29:56;;;;;;;;;15.75;12.75;;;;;15.34;62.36;99244.53;5013693;28;45605;-64
2023/04/19 09:32:22;;;;;;;;;13.25;13.25;;;;;15.39;62.08;99244.25;5013365;28;45507;-63
2023/04/19 09:35:06;;;;;;;;;12.00;12.00;;;;;15.49;61.15;99239.25;5017567;28;46103;-62
2023/04/19 09:37:31;;;;;;;;;11.20;10.20;;;;;15.56;61.19;99235.34;5013638;28;45430;-63
2023/04/19 09:39:57;;;;;;;;;13.50;11.50;;;;;15.64;60.99;99233.94;5014934;28;45476;-63
2023/04/19 09:42:22;;;;;;;;;14.75;11.50;;;;;15.73;60.44;99229.03;5014306;28;45528;-63
2023/04/19 09:44:55;;;;;;;;;12.00;10.50;;;;;15.83;60.37;99227.53;5014553;28;45964;-64
2023/04/19 09:47:25;;;;;;;;;14.75;10.50;;;;;15.89;60.74;99219.19;5013905;28;45500;-64
2023/04/19 09:50:11;;;;;;;;;14.00;13.50;;;;;15.97;60.74;99219.56;5007847;28;45416;-63
2023/04/19 09:52:37;;;;;;;;;12.50;11.75;;;;;16.02;60.35;99209.53;5013405;28;45426;-63
2023/04/19 09:55:05;;;;;;;;;11.75;10.00;;;;;16.10;60.21;99209.03;5014032;28;46048;-63
2023/04/19 09:57:32;;;;;;;;;11.50;11.50;;;;;16.17;60.36;99203.25;5011717;28;45540;-63
2023/04/19 09:59:59;;;;;;;;;18.75;13.50;;;;;16.24;59.63;99191.31;5014051;28;45358;-63
2023/04/19 10:02:30;;;;;;;;;13.50;13.00;;;;;16.32;59.77;99189.00;5014931;28;45380;-63
2023/04/19 10:04:57;;;;;;;;;16.75;13.75;;;;;16.39;59.84;99182.38;5014560;28;46446;-63
2023/04/19 10:07:23;;;;;;;;;15.00;12.60;;;;;16.47;59.56;99181.88;5015510;28;45396;-64
2023/04/19 10:09:50;;;;;;;;;13.50;11.75;;;;;16.55;59.76;99179.59;5013737;28;45393;-64
2023/04/19 10:12:15;;;;;;;;;11.50;11.00;;;;;16.61;59.34;99173.84;5014166;28;45378;-64
2023/04/19 10:14:42;;;;;;;;;13.50;12.25;;;;;16.71;59.40;99176.84;5014147;28;46306;-67
2023/04/19 10:17:08;;;;;;;;;11.00;10.40;;;;;16.81;59.33;99174.41;5013779;28;45295;-63
2023/04/19 10:19:36;;;;;;;;;14.75;14.50;;;;;16.91;58.47;99168.41;5014547;28;45390;-64
2023/04/19 10:22:05;;;;;;;;;11.75;11.75;;;;;17.00;58.52;99165.13;5015169;28;45372;-65
2023/04/19 10:24:32;;;;;;;;;11.75;9.75;;;;;17.07;58.38;99160.28;5029701;28;46184;-65
2023/04/19 10:27:10;;;;;;;;;14.00;13.60;;;;;17.15;58.53;99157.09;5014585;28;45311;-65
2023/04/19 10:29:59;;;;;;;;;10.50;10.00;;;;;17.19;57.58;99154.13;5014553;28;45500;-65
2023/04/19 10:32:42;;;;;;;;;9.25;7.75;;;;;17.20;58.15;99149.66;5014837;28;45566;-65
2023/04/19 10:35:19;;;;;;;;;15.75;12.75;;;;;17.24;57.28;99149.34;5014552;28;46231;-65
2023/04/19 10:38:03;;;;;;;;;13.25;10.50;;;;;17.30;56.30;99142.72;5014382;28;45367;-64
2023/04/19 10:40:50;;;;;;;;;11.00;9.25;;;;;17.34;56.25;99142.44;5014164;28;45381;-63
2023/04/19 10:43:17;;;;;;;;;12.50;11.50;;;;;17.42;55.29;99140.13;5028865;28;46074;-64
2023/04/19 10:45:44;;;;;;;;;11.75;9.25;;;;;17.50;55.38;99136.06;5013412;28;46288;-64
2023/04/19 10:48:34;;;;;;;;;13.00;11.80;;;;;17.63;55.89;99129.78;5013615;28;45537;-64
2023/04/19 10:51:13;;;;;;;;;14.75;12.75;;;;;17.77;54.76;99124.38;5013907;28;45419;-64
2023/04/19 10:53:56;;;;;;;;;11.25;10.00;;;;;17.89;54.35;99122.69;5013888;28;45509;-64
2023/04/19 10:56:34;;;;;;;;;7.25;7.25;;;;;18.02;54.79;99110.19;5013510;28;45377;-64
2023/04/19 10:59:12;;;;;;;;;12.60;10.80;;;;;18.13;53.61;99110.28;5029096;28;45499;-65
2023/04/19 11:01:41;;;;;;;;;12.50;12.50;;;;;18.21;52.72;99107.06;5014355;28;45443;-64
2023/04/19 11:04:10;;;;;;;;;10.50;9.25;;;;;18.27;52.68;99095.09;5012615;28;45619;-64
2023/04/19 11:06:37;;;;;;;;;9.20;9.00;;;;;18.38;52.48;99105.84;5012889;28;45507;-65
2023/04/19 11:09:05;;;;;;;;;10.60;9.20;;;;;18.53;51.23;99085.19;5012129;28;45465;-64
2023/04/19 11:11:35;;;;;;;;;11.00;9.00;;;;;18.68;51.41;99092.97;5014056;28;45313;-64
2023/04/19 11:14:03;;;;;;;;;8.75;8.75;;;;;18.80;51.37;99076.03;5013248;28;45433;-64
2023/04/19 11:16:29;;;;;;;;;9.25;8.25;;;;;18.95;51.39;99070.50;5028533;28;46849;-64
2023/04/19 11:18:54;;;;;;;;;10.00;9.60;;;;;19.07;50.94;99070.44;5013403;28;45380;-64
2023/04/19 11:21:20;;;;;;;;;7.50;7.50;;;;;19.21;50.65;99060.53;5028721;28;45509;-64